Time;durP1;ratioP1;P1;durP2;ratioP2;P2;SDS_P1;SDS_P2;PMS_P1;PMS_P2;Temp;Humidity;BMP_temperature;BMP_pressure;BME280_temperature;BME280_humidity;BME280_pressure;Samples;Min_cycle;Max_cycle;Signal;HPM_P1;HPM_P2
2022/09/01 00:00:59;;;;;;;;;18.50;17.00;;;;;23.21;46.74;101290.88;5020898;28;45507;-80
2022/09/01 00:03:25;;;;;;;;;17.25;16.50;;;;;23.20;46.76;101289.16;5001971;28;45254;-80
2022/09/01 00:05:53;;;;;;;;;14.25;14.25;;;;;23.17;46.82;101288.41;5002828;28;45416;-80
2022/09/01 00:08:19;;;;;;;;;18.75;18.25;;;;;23.11;46.76;101292.25;5001329;28;45590;-80
2022/09/01 00:10:45;;;;;;;;;15.75;15.75;;;;;23.03;46.91;101287.25;5000852;28;47057;-80
2022/09/01 00:13:11;;;;;;;;;15.75;13.75;;;;;22.98;47.21;101294.63;5002181;28;45415;-79
2022/09/01 00:15:36;;;;;;;;;19.25;18.25;;;;;22.90;46.95;101291.41;5002512;28;45414;-80
2022/09/01 00:18:02;;;;;;;;;14.25;13.00;;;;;22.86;47.29;101284.47;5002276;28;45526;-79
2022/09/01 00:20:28;;;;;;;;;14.25;14.25;;;;;22.84;47.63;101286.34;5002171;28;45447;-79
2022/09/01 00:22:54;;;;;;;;;21.50;18.25;;;;;22.82;47.36;101286.41;5002191;28;45435;-80
2022/09/01 00:25:20;;;;;;;;;18.00;17.25;;;;;22.80;47.51;101290.09;5001023;28;45369;-79
2022/09/01 00:27:47;;;;;;;;;17.75;17.75;;;;;22.77;47.66;101276.81;5000662;28;45574;-80
2022/09/01 00:30:12;;;;;;;;;17.50;15.75;;;;;22.77;47.52;101285.72;5002157;28;46306;-79
2022/09/01 00:32:38;;;;;;;;;16.00;16.00;;;;;22.73;47.70;101278.78;5001992;28;45234;-80
2022/09/01 00:35:04;;;;;;;;;11.75;11.75;;;;;22.72;47.86;101279.72;5002255;28;45246;-79
2022/09/01 00:37:30;;;;;;;;;16.50;16.50;;;;;22.71;48.02;101280.66;5002186;28;45403;-80
2022/09/01 00:39:56;;;;;;;;;17.50;17.50;;;;;22.71;47.59;101272.59;5000448;28;46150;-79
2022/09/01 00:42:22;;;;;;;;;15.75;14.00;;;;;22.68;47.47;101278.13;5001745;28;45323;-80
2022/09/01 00:44:48;;;;;;;;;17.00;15.50;;;;;22.68;48.06;101280.78;5000657;28;45453;-80
2022/09/01 00:47:16;;;;;;;;;15.50;14.75;;;;;22.67;47.96;101279.94;5010032;28;45384;-79
2022/09/01 00:49:46;;;;;;;;;16.75;15.00;;;;;22.68;47.81;101275.44;5021664;28;45423;-79
2022/09/01 00:52:37;;;;;;;;;18.00;17.75;;;;;22.70;48.17;101272.69;5021691;28;45438;-79
2022/09/01 00:55:12;;;;;;;;;14.50;13.75;;;;;22.68;48.05;101275.44;5019991;28;45348;-80
2022/09/01 00:57:39;;;;;;;;;13.75;13.00;;;;;22.63;48.08;101272.09;5021381;28;45253;-79
2022/09/01 01:00:13;;;;;;;;;15.75;15.00;;;;;22.63;47.93;101272.09;5020199;28;47035;-80
2022/09/01 01:02:40;;;;;;;;;15.50;14.75;;;;;22.59;48.40;101260.63;5021157;28;45451;-80
2022/09/01 01:05:07;;;;;;;;;14.25;13.00;;;;;22.56;48.02;101263.44;5020308;28;45309;-80
2022/09/01 01:07:37;;;;;;;;;15.75;14.50;;;;;22.55;48.29;101263.50;5021663;28;45564;-81
2022/09/01 01:10:07;;;;;;;;;15.25;13.75;;;;;22.53;48.36;101255.50;5012121;28;46425;-80
2022/09/01 01:12:36;;;;;;;;;13.75;13.75;;;;;22.53;48.34;101260.00;5000137;28;45375;-80
2022/09/01 01:15:05;;;;;;;;;14.00;13.50;;;;;22.50;48.32;101261.03;4999436;28;45292;-80
2022/09/01 01:17:31;;;;;;;;;16.50;15.75;;;;;22.49;48.49;101261.97;5000295;28;45498;-80
2022/09/01 01:23:04;;;;;;;;;16.00;16.00;;;;;22.45;49.00;101255.88;5014916;28;45558;-80
2022/09/01 01:25:47;;;;;;;;;17.00;16.00;;;;;22.43;48.94;101270.31;5015760;28;45253;-79
2022/09/01 01:28:17;;;;;;;;;19.00;15.25;;;;;22.41;48.90;101262.31;5000077;28;45415;-80
2022/09/01 01:30:54;;;;;;;;;15.00;15.00;;;;;22.37;48.93;101254.47;5015499;28;47257;-80
2022/09/01 01:33:28;;;;;;;;;15.75;15.00;;;;;22.37;48.78;101262.50;5001653;28;45454;-79
2022/09/01 01:35:56;;;;;;;;;14.75;14.50;;;;;22.36;49.14;101263.47;5001821;28;45228;-79
2022/09/01 01:38:22;;;;;;;;;17.75;16.75;;;;;22.32;48.81;101261.84;5000177;28;45577;-80
2022/09/01 01:40:48;;;;;;;;;15.25;14.25;;;;;22.33;49.36;101268.97;5000750;28;46323;-79
2022/09/01 01:43:18;;;;;;;;;17.75;16.25;;;;;22.31;49.06;101271.72;5000201;28;45412;-80
2022/09/01 01:45:50;;;;;;;;;17.00;17.00;;;;;22.31;49.23;101262.78;5000903;28;45240;-79
2022/09/01 01:48:21;;;;;;;;;18.50;18.50;;;;;22.26;48.85;101263.00;5015921;28;45518;-79
2022/09/01 01:50:48;;;;;;;;;16.75;15.75;;;;;22.24;49.59;101260.41;5019279;28;48165;-80
2022/09/01 01:53:16;;;;;;;;;14.25;13.00;;;;;22.21;49.36;101265.91;5020438;28;45283;-80
2022/09/01 01:55:42;;;;;;;;;13.50;12.25;;;;;22.21;49.51;101260.53;5018828;28;45279;-80
2022/09/01 01:58:10;;;;;;;;;15.00;12.25;;;;;22.19;49.70;101258.84;5018867;28;45568;-80
2022/09/01 02:00:37;;;;;;;;;16.00;14.75;;;;;22.19;49.15;101270.44;5020333;28;45490;-79
2022/09/01 02:03:06;;;;;;;;;16.50;14.75;;;;;22.16;49.35;101262.50;5019062;28;45495;-80
2022/09/01 02:05:34;;;;;;;;;14.00;13.25;;;;;22.19;49.53;101262.41;5020704;28;45231;-79
2022/09/01 02:08:03;;;;;;;;;14.50;13.50;;;;;22.17;49.35;101264.25;5020489;28;45408;-80
2022/09/01 02:10:37;;;;;;;;;14.00;13.00;;;;;22.16;49.53;101267.88;5018954;28;46933;-79
2022/09/01 02:13:06;;;;;;;;;11.50;11.50;;;;;22.14;49.65;101267.06;5018734;28;45586;-80
2022/09/01 02:15:44;;;;;;;;;12.75;12.75;;;;;22.16;49.64;101272.34;5020223;28;45310;-80
2022/09/01 02:18:34;;;;;;;;;17.25;14.75;;;;;22.14;49.81;101280.47;5019211;28;45482;-80
2022/09/01 02:20:59;;;;;;;;;10.50;10.50;;;;;22.12;49.73;101276.97;5018597;28;46715;-80
2022/09/01 02:23:26;;;;;;;;;14.50;13.50;;;;;22.11;49.89;101274.38;5018811;28;45305;-80
2022/09/01 02:25:55;;;;;;;;;12.00;11.50;;;;;22.07;49.71;101276.31;5018891;28;45470;-79
2022/09/01 02:28:21;;;;;;;;;14.50;11.75;;;;;22.08;50.11;101277.16;5018632;28;45518;-80
2022/09/01 02:30:56;;;;;;;;;15.50;11.50;;;;;22.07;49.93;101273.63;5018682;28;46996;-80
2022/09/01 02:33:24;;;;;;;;;13.00;13.00;;;;;22.05;49.78;101272.81;5018654;28;45308;-80
2022/09/01 02:35:59;;;;;;;;;14.00;14.00;;;;;22.00;50.01;101275.72;5020141;28;45342;-80
2022/09/01 02:38:28;;;;;;;;;9.75;9.50;;;;;22.00;50.14;101282.88;5019982;28;45305;-80
2022/09/01 02:40:57;;;;;;;;;14.00;13.25;;;;;22.00;50.14;101280.22;5018598;28;47087;-80
2022/09/01 02:43:27;;;;;;;;;10.50;10.50;;;;;21.98;50.09;101274.91;5019368;28;45368;-79
2022/09/01 02:45:56;;;;;;;;;11.75;11.75;;;;;21.95;50.12;101280.41;5019855;28;45237;-79
2022/09/01 02:48:35;;;;;;;;;11.00;10.75;;;;;21.93;50.29;101273.34;5018345;28;45438;-80
2022/09/01 02:51:06;;;;;;;;;14.00;12.75;;;;;21.89;50.45;101269.94;5019608;28;45169;-80
2022/09/01 02:53:33;;;;;;;;;12.25;12.00;;;;;21.88;50.32;101268.19;5019763;28;45233;-79
2022/09/01 02:56:01;;;;;;;;;13.75;11.75;;;;;21.85;50.35;101265.63;5019460;28;45562;-79
2022/09/01 02:58:28;;;;;;;;;13.50;13.00;;;;;21.84;50.46;101263.00;5034891;28;45574;-80
2022/09/01 03:00:57;;;;;;;;;12.00;12.00;;;;;21.82;50.75;101265.78;5019439;28;45251;-79
2022/09/01 03:03:24;;;;;;;;;10.75;10.50;;;;;21.78;50.55;101266.81;5019456;28;45443;-80
2022/09/01 03:05:54;;;;;;;;;12.75;10.75;;;;;21.78;50.70;101273.06;5018277;28;45269;-79
2022/09/01 03:08:20;;;;;;;;;12.50;11.25;;;;;21.76;51.01;101266.91;5018417;28;45516;-80
2022/09/01 03:10:46;;;;;;;;;11.00;11.00;;;;;21.71;50.78;101268.03;5018164;28;45796;-79
2022/09/01 03:13:19;;;;;;;;;11.75;11.75;;;;;21.69;51.05;101264.53;5019520;28;45432;-79
2022/09/01 03:15:45;;;;;;;;;10.25;10.25;;;;;21.66;51.02;101268.22;5003886;28;45280;-79
2022/09/01 03:18:13;;;;;;;;;14.50;12.25;;;;;21.63;50.99;101262.97;4999893;28;45372;-79
2022/09/01 03:20:43;;;;;;;;;11.50;11.50;;;;;21.64;50.80;101258.50;4998263;28;47461;-80
2022/09/01 03:23:13;;;;;;;;;12.00;10.50;;;;;21.61;50.86;101261.31;4998224;28;45506;-79
2022/09/01 03:25:40;;;;;;;;;11.00;11.00;;;;;21.58;51.15;101263.16;4998197;28;45376;-80
2022/09/01 03:28:06;;;;;;;;;12.50;11.50;;;;;21.53;51.41;101257.13;4998171;28;45525;-79
2022/09/01 03:30:34;;;;;;;;;11.75;11.75;;;;;21.53;51.12;101261.63;4997894;28;47206;-80
2022/09/01 03:33:01;;;;;;;;;11.50;11.50;;;;;21.53;51.06;101261.63;4998240;28;45871;-79
2022/09/01 03:35:28;;;;;;;;;12.25;12.00;;;;;21.48;51.18;101247.53;4999447;28;45320;-80
2022/09/01 03:37:57;;;;;;;;;12.75;10.75;;;;;21.49;51.47;101251.94;4999547;28;45451;-81
2022/09/01 03:40:31;;;;;;;;;13.75;12.50;;;;;21.46;51.34;101244.91;5006514;28;47508;-80
2022/09/01 03:42:57;;;;;;;;;13.25;12.75;;;;;21.45;51.75;101245.84;5021139;28;45304;-80
2022/09/01 03:45:24;;;;;;;;;12.50;12.50;;;;;21.45;51.40;101245.84;5001550;28;45280;-80
2022/09/01 03:47:53;;;;;;;;;12.00;11.00;;;;;21.46;51.96;101244.91;5014543;28;45403;-80
2022/09/01 03:50:22;;;;;;;;;12.50;11.25;;;;;21.44;51.89;101245.91;5022072;28;47244;-80
2022/09/01 03:52:52;;;;;;;;;16.00;12.75;;;;;21.41;51.66;101249.59;5024041;28;45243;-79
2022/09/01 03:55:22;;;;;;;;;14.75;13.25;;;;;21.36;51.79;101240.84;5022557;28;45570;-79
2022/09/01 03:57:49;;;;;;;;;14.75;13.75;;;;;21.38;52.12;101247.03;5019099;28;45502;-80
2022/09/01 04:00:22;;;;;;;;;14.75;14.75;;;;;21.34;52.04;101240.91;5006635;28;48515;-80
2022/09/01 04:02:54;;;;;;;;;17.25;15.50;;;;;21.35;52.05;101241.75;4991619;28;45969;-81
2022/09/01 04:05:21;;;;;;;;;15.25;14.25;;;;;21.34;52.14;101238.22;5023621;28;45304;-80
2022/09/01 04:07:49;;;;;;;;;17.25;17.25;;;;;21.28;52.44;101233.13;5021013;28;46535;-81
2022/09/01 04:10:16;;;;;;;;;13.50;13.50;;;;;21.26;52.48;101237.66;5011583;28;45328;-80
2022/09/01 04:12:42;;;;;;;;;18.25;16.50;;;;;21.27;52.52;101239.41;5000728;28;45485;-80
2022/09/01 04:15:08;;;;;;;;;17.50;15.75;;;;;21.25;52.16;101227.91;5002571;28;45378;-81
2022/09/01 04:20:22;;;;;;;;;16.50;15.00;;;;;21.26;52.68;101228.75;5002201;28;45359;-80
2022/09/01 04:22:49;;;;;;;;;16.75;16.50;;;;;21.27;52.73;101226.00;5003062;28;45329;-80
2022/09/01 04:25:16;;;;;;;;;17.00;15.00;;;;;21.25;52.38;101225.22;5002035;28;45253;-81
2022/09/01 04:27:46;;;;;;;;;18.25;17.25;;;;;21.27;53.16;101233.16;5001875;28;45493;-80
2022/09/01 04:30:11;;;;;;;;;15.00;12.50;;;;;21.22;52.53;101237.84;5001002;28;48462;-80
2022/09/01 04:32:37;;;;;;;;;14.00;14.00;;;;;21.14;53.08;101235.47;5001056;28;45269;-80
2022/09/01 04:35:06;;;;;;;;;14.75;14.75;;;;;21.11;52.96;101224.88;5000741;28;45268;-79
2022/09/01 04:37:35;;;;;;;;;14.00;13.25;;;;;21.13;53.08;101228.38;5000807;28;45449;-80
2022/09/01 04:40:02;;;;;;;;;14.00;12.75;;;;;21.12;53.40;101235.53;5000388;28;47063;-80
2022/09/01 04:42:31;;;;;;;;;14.50;12.50;;;;;21.10;53.37;101233.84;5002297;28;45212;-80
2022/09/01 04:44:59;;;;;;;;;15.50;13.25;;;;;21.05;53.41;101225.13;5001890;28;45367;-80
2022/09/01 04:47:29;;;;;;;;;16.75;14.25;;;;;21.07;53.88;101224.13;5011184;28;45490;-80
2022/09/01 04:49:59;;;;;;;;;13.50;13.00;;;;;21.08;53.67;101219.66;5020228;28;45446;-80
2022/09/01 04:52:26;;;;;;;;;10.50;10.50;;;;;21.09;54.01;101224.97;5021313;28;45545;-80
2022/09/01 04:54:53;;;;;;;;;15.25;13.00;;;;;21.11;53.67;101232.91;5020258;28;45462;-80
2022/09/01 04:57:20;;;;;;;;;16.50;16.25;;;;;21.12;53.82;101235.53;5021013;28;45456;-81
2022/09/01 04:59:46;;;;;;;;;14.25;13.25;;;;;21.11;53.67;101231.09;5021213;28;46676;-81
2022/09/01 05:02:12;;;;;;;;;12.25;12.00;;;;;21.15;54.05;101229.19;5020388;28;45554;-81
2022/09/01 05:04:40;;;;;;;;;15.50;15.50;;;;;21.13;53.93;101236.41;5021423;28;45490;-80
2022/09/01 05:07:07;;;;;;;;;13.00;12.25;;;;;21.14;53.92;101240.81;5019995;28;45811;-81
2022/09/01 05:09:35;;;;;;;;;14.50;13.75;;;;;21.13;54.19;101239.09;5020870;28;45473;-80
2022/09/01 05:12:09;;;;;;;;;7.25;7.00;;;;;21.10;54.12;101237.41;5019458;28;45463;-81
2022/09/01 05:14:38;;;;;;;;;13.75;11.25;;;;;21.12;54.25;101238.22;5021529;28;45234;-81
2022/09/01 05:17:09;;;;;;;;;11.25;11.25;;;;;21.15;53.95;101243.44;5019485;28;45460;-81
2022/09/01 05:19:46;;;;;;;;;11.50;11.50;;;;;21.17;54.03;101246.06;5019642;28;47133;-81
2022/09/01 05:22:14;;;;;;;;;12.00;11.00;;;;;21.19;54.24;101232.59;5020690;28;45439;-81
2022/09/01 05:24:40;;;;;;;;;15.25;14.00;;;;;21.20;54.63;101237.91;5019690;28;45446;-81
2022/09/01 05:27:06;;;;;;;;;15.25;12.75;;;;;21.22;54.39;101240.50;5019243;28;45714;-81
2022/09/01 05:29:33;;;;;;;;;13.75;13.75;;;;;21.22;54.44;101238.69;5019604;28;47224;-80
2022/09/01 05:32:07;;;;;;;;;13.25;11.00;;;;;21.20;54.55;101232.56;5019163;28;45316;-80
2022/09/01 05:34:36;;;;;;;;;14.75;14.75;;;;;21.22;54.60;101232.47;5036235;28;45524;-82
2022/09/01 05:37:01;;;;;;;;;13.00;13.00;;;;;21.26;54.88;101237.66;5019325;28;45371;-81
2022/09/01 05:39:27;;;;;;;;;13.00;13.00;;;;;21.27;54.41;101230.50;5019392;28;48570;-80
2022/09/01 05:41:53;;;;;;;;;14.00;14.00;;;;;21.32;54.19;101236.53;5020201;28;45288;-80
2022/09/01 05:44:21;;;;;;;;;12.25;12.25;;;;;21.33;54.07;101230.22;5021014;28;45424;-81
2022/09/01 05:46:48;;;;;;;;;15.25;13.50;;;;;21.37;54.53;101234.53;5020538;28;45233;-81
2022/09/01 05:49:15;;;;;;;;;12.75;10.50;;;;;21.40;54.28;101233.59;5020558;28;45247;-81
2022/09/01 05:51:43;;;;;;;;;12.75;12.25;;;;;21.41;54.26;101233.53;5019232;28;45492;-81
2022/09/01 05:54:10;;;;;;;;;9.00;8.00;;;;;21.44;54.26;101224.47;5020438;28;45295;-81
2022/09/01 05:56:39;;;;;;;;;13.00;12.25;;;;;21.43;54.21;101220.94;5020131;28;45266;-80
2022/09/01 05:59:04;;;;;;;;;14.75;12.25;;;;;21.45;53.90;101226.22;5018976;28;48087;-80
2022/09/01 06:01:32;;;;;;;;;14.25;13.50;;;;;21.46;53.70;101219.94;5018264;28;45241;-80
2022/09/01 06:03:58;;;;;;;;;14.25;12.50;;;;;21.49;54.30;101230.50;5020706;28;45429;-81
2022/09/01 06:06:27;;;;;;;;;16.00;13.75;;;;;21.52;54.03;101241.13;5020438;28;45656;-81
2022/09/01 06:08:57;;;;;;;;;13.75;11.00;;;;;21.53;54.08;101234.81;5020282;28;45519;-81
2022/09/01 06:11:31;;;;;;;;;15.00;12.25;;;;;21.56;53.84;101243.59;5018639;28;45447;-81
2022/09/01 06:13:58;;;;;;;;;15.25;12.50;;;;;21.59;53.79;101243.47;5005353;28;45447;-80
2022/09/01 06:16:24;;;;;;;;;10.75;8.75;;;;;21.66;53.69;101240.56;5000283;28;45525;-81
2022/09/01 06:18:54;;;;;;;;;12.50;10.75;;;;;21.71;53.85;101235.88;5000059;28;45523;-81
2022/09/01 06:21:21;;;;;;;;;15.00;13.75;;;;;21.77;53.60;101231.09;4998949;28;45313;-81
2022/09/01 06:23:49;;;;;;;;;15.50;14.50;;;;;21.83;53.43;101248.72;4998966;28;45351;-81
2022/09/01 06:26:22;;;;;;;;;13.25;13.25;;;;;21.87;53.54;101233.41;5000183;28;45372;-81
2022/09/01 06:28:48;;;;;;;;;16.50;14.00;;;;;21.93;53.15;101238.50;4999666;28;45703;-81
2022/09/01 06:31:14;;;;;;;;;13.25;13.00;;;;;21.95;53.17;101236.63;4998517;28;45669;-81
2022/09/01 06:33:43;;;;;;;;;14.25;14.00;;;;;22.03;52.91;101238.03;4999271;28;45479;-81
2022/09/01 06:36:08;;;;;;;;;13.00;13.00;;;;;22.08;52.81;101243.19;4999029;28;45257;-81
2022/09/01 06:38:35;;;;;;;;;16.50;16.00;;;;;22.13;53.03;101233.16;4998543;28;47205;-83
2022/09/01 06:41:03;;;;;;;;;14.50;14.50;;;;;22.17;52.70;101229.38;4999105;28;45899;-81
2022/09/01 06:43:29;;;;;;;;;13.00;12.50;;;;;22.20;52.63;101241.81;4999802;28;45261;-81
2022/09/01 06:45:55;;;;;;;;;12.25;12.25;;;;;22.24;52.85;101238.06;4999754;28;45462;-81
2022/09/01 06:48:22;;;;;;;;;14.50;13.00;;;;;22.31;52.50;101239.53;5016930;28;45347;-81
2022/09/01 06:50:48;;;;;;;;;12.50;12.50;;;;;22.39;52.34;101237.34;5018221;28;45259;-81
2022/09/01 06:53:15;;;;;;;;;15.00;12.50;;;;;22.48;52.10;101237.88;5018087;28;45354;-81
2022/09/01 06:55:42;;;;;;;;;15.50;13.75;;;;;22.54;52.13;101243.84;5018993;28;45577;-80
2022/09/01 06:58:10;;;;;;;;;11.75;11.25;;;;;22.59;51.50;101239.16;5019064;28;46038;-80
2022/09/01 07:00:43;;;;;;;;;9.00;8.50;;;;;22.65;51.34;101240.69;5017792;28;45793;-80
2022/09/01 07:03:12;;;;;;;;;13.00;13.00;;;;;22.72;51.15;101246.63;5018060;28;45466;-80
2022/09/01 07:05:43;;;;;;;;;14.50;13.75;;;;;22.75;51.14;101249.16;5019873;28;45490;-80
2022/09/01 07:08:12;;;;;;;;;15.75;12.50;;;;;22.80;50.94;101247.13;4998168;28;48253;-81
2022/09/01 07:10:44;;;;;;;;;13.00;11.25;;;;;22.82;51.22;101245.25;4998021;28;45267;-80
2022/09/01 07:13:16;;;;;;;;;12.00;12.00;;;;;22.87;50.87;101232.50;5000199;28;45362;-80
2022/09/01 07:15:43;;;;;;;;;15.00;11.75;;;;;22.92;50.64;101240.34;5018272;28;45372;-80
2022/09/01 07:18:11;;;;;;;;;12.50;11.75;;;;;22.97;50.32;101239.19;5021166;28;45705;-80
2022/09/01 07:20:47;;;;;;;;;13.75;13.00;;;;;23.00;50.21;101239.06;5021179;28;45217;-80
2022/09/01 07:23:22;;;;;;;;;14.75;14.25;;;;;23.06;50.45;101243.25;5020927;28;45248;-80
2022/09/01 07:25:49;;;;;;;;;12.25;12.25;;;;;23.12;50.37;101248.31;5001728;28;45706;-80
2022/09/01 07:28:17;;;;;;;;;15.00;14.00;;;;;23.15;49.92;101248.19;5002235;28;45701;-80
2022/09/01 07:30:47;;;;;;;;;11.25;11.25;;;;;23.20;50.32;101256.00;5002104;28;45384;-81
2022/09/01 07:33:17;;;;;;;;;14.25;12.50;;;;;23.20;50.13;101254.22;5001358;28;45255;-81
2022/09/01 07:35:43;;;;;;;;;13.50;12.75;;;;;23.23;49.88;101256.75;5007930;28;45513;-81
2022/09/01 07:38:09;;;;;;;;;13.00;12.00;;;;;23.29;49.71;101259.13;5020826;28;47673;-81
2022/09/01 07:40:41;;;;;;;;;15.00;15.00;;;;;23.27;49.82;101261.03;5020857;28;45446;-81
2022/09/01 07:43:15;;;;;;;;;11.00;10.25;;;;;23.32;49.82;101259.00;5022003;28;45397;-81
2022/09/01 07:45:46;;;;;;;;;17.25;14.00;;;;;23.33;49.80;101260.75;5036802;28;45586;-81
2022/09/01 07:48:13;;;;;;;;;14.50;12.50;;;;;23.41;49.67;101264.84;5020587;28;46437;-81
2022/09/01 07:50:46;;;;;;;;;11.50;11.50;;;;;23.42;49.57;101262.09;5020539;28;45372;-81
2022/09/01 07:53:17;;;;;;;;;15.75;14.25;;;;;23.43;49.57;101252.22;5020297;28;45350;-81
2022/09/01 07:55:49;;;;;;;;;16.50;14.75;;;;;23.48;49.64;101256.41;5021365;28;45742;-81
2022/09/01 07:58:17;;;;;;;;;16.25;15.25;;;;;23.54;49.58;101263.31;5020225;28;47150;-81
2022/09/01 08:00:43;;;;;;;;;33.00;28.25;;;;;23.56;49.22;101256.91;5020494;28;45348;-81
2022/09/01 08:03:09;;;;;;;;;15.00;15.00;;;;;23.64;49.55;101259.22;5020646;28;45503;-81
2022/09/01 08:05:35;;;;;;;;;16.00;14.75;;;;;23.70;49.23;101258.03;5021868;28;45375;-81
2022/09/01 08:08:00;;;;;;;;;16.00;14.25;;;;;23.77;49.56;101254.13;5021724;28;45376;-81
2022/09/01 08:10:28;;;;;;;;;12.50;11.50;;;;;23.85;49.01;101260.00;5020506;28;46162;-81
2022/09/01 08:12:54;;;;;;;;;15.75;13.50;;;;;23.89;49.09;101253.47;5020371;28;45272;-81
2022/09/01 08:15:19;;;;;;;;;14.25;13.25;;;;;23.95;48.64;101252.28;5021805;28;45236;-81
2022/09/01 08:17:45;;;;;;;;;12.75;12.75;;;;;24.03;48.84;101254.59;5023535;28;45280;-81
2022/09/01 08:20:11;;;;;;;;;15.50;13.50;;;;;24.08;49.01;101260.59;5021783;28;45480;-81
2022/09/01 08:22:37;;;;;;;;;14.00;14.00;;;;;24.14;48.28;101261.19;5023366;28;45483;-81
2022/09/01 08:25:05;;;;;;;;;11.25;11.25;;;;;24.20;48.55;101257.28;5021749;28;45739;-81
2022/09/01 08:27:33;;;;;;;;;11.50;11.00;;;;;24.26;48.60;101265.03;5020417;28;47049;-80
2022/09/01 08:29:59;;;;;;;;;14.00;13.00;;;;;24.27;48.08;101271.28;5022849;28;45463;-80
2022/09/01 08:32:25;;;;;;;;;12.25;12.00;;;;;24.25;48.39;101260.63;5016840;28;45983;-81
2022/09/01 08:34:50;;;;;;;;;18.75;14.50;;;;;24.31;48.04;101275.56;5000703;28;45598;-81
2022/09/01 08:37:16;;;;;;;;;13.25;12.00;;;;;24.31;47.71;101271.03;5001628;28;45493;-81
2022/09/01 08:39:41;;;;;;;;;8.25;7.50;;;;;24.37;47.65;101267.16;5000478;28;45432;-81
2022/09/01 08:42:22;;;;;;;;;12.25;11.25;;;;;24.47;47.65;101268.44;5000168;28;45361;-81
2022/09/01 08:44:58;;;;;;;;;14.25;12.25;;;;;24.54;47.94;101271.66;5001150;28;45230;-81
2022/09/01 08:47:23;;;;;;;;;11.00;11.00;;;;;24.57;47.68;101264.31;5009873;28;47436;-80
2022/09/01 08:49:49;;;;;;;;;13.75;12.75;;;;;24.63;47.73;101271.19;5020426;28;45589;-81
2022/09/01 08:52:17;;;;;;;;;12.50;11.25;;;;;24.69;47.69;101268.16;5021587;28;45265;-81
2022/09/01 08:55:05;;;;;;;;;14.00;13.00;;;;;24.73;47.47;101263.47;5020753;28;45436;-81
2022/09/01 08:57:44;;;;;;;;;12.25;12.25;;;;;24.84;47.31;101264.63;5012458;28;46942;-81
2022/09/01 09:00:14;;;;;;;;;10.25;10.25;;;;;24.97;46.73;101258.56;5013468;28;45200;-81
2022/09/01 09:02:42;;;;;;;;;15.25;12.00;;;;;25.10;47.00;101267.69;5000032;28;45352;-81
2022/09/01 09:05:31;;;;;;;;;12.00;12.00;;;;;25.21;46.45;101269.81;5002551;28;45252;-81
2022/09/01 09:08:38;;;;;;;;;15.00;13.00;;;;;25.33;46.68;101273.63;5000664;28;45593;-80
2022/09/01 09:11:24;;;;;;;;;13.00;13.00;;;;;25.41;46.37;101280.31;5012067;28;45476;-81
2022/09/01 09:13:59;;;;;;;;;10.00;9.75;;;;;25.52;46.14;101271.59;5000626;28;45483;-81
2022/09/01 09:16:35;;;;;;;;;14.00;12.75;;;;;25.61;45.78;101267.50;4999152;28;45502;-81
2022/09/01 09:19:15;;;;;;;;;15.00;13.00;;;;;25.71;45.82;101260.63;4999739;28;46296;-81
2022/09/01 09:21:43;;;;;;;;;10.50;10.25;;;;;25.79;45.35;101263.72;4999267;28;45512;-81
2022/09/01 09:24:20;;;;;;;;;11.50;11.00;;;;;25.85;44.91;101271.50;4998700;28;45375;-81
2022/09/01 09:26:57;;;;;;;;;11.50;11.00;;;;;25.91;45.09;101256.78;4999052;28;45412;-81
2022/09/01 09:29:24;;;;;;;;;10.25;10.00;;;;;26.01;44.89;101270.56;5009208;28;45273;-81
2022/09/01 09:32:03;;;;;;;;;11.75;10.50;;;;;26.11;44.69;101267.22;5020299;28;45473;-81
2022/09/01 09:34:37;;;;;;;;;13.25;11.75;;;;;26.18;44.17;101263.19;5018543;28;45525;-81
2022/09/01 09:37:26;;;;;;;;;12.75;12.50;;;;;26.24;44.15;101261.09;5019742;28;45609;-81
2022/09/01 09:40:13;;;;;;;;;11.75;11.75;;;;;26.20;43.98;101252.31;5018217;28;47205;-81
2022/09/01 09:42:42;;;;;;;;;12.50;12.50;;;;;26.28;43.94;101258.13;5019863;28;45300;-81
2022/09/01 09:45:47;;;;;;;;;12.50;12.50;;;;;26.40;43.59;101257.34;5018132;28;45374;-81
2022/09/01 09:48:31;;;;;;;;;13.00;11.75;;;;;26.51;43.23;101256.69;5016865;28;45519;-81
2022/09/01 09:51:20;;;;;;;;;14.75;12.75;;;;;26.68;43.25;101249.38;5018434;28;47990;-81
2022/09/01 09:53:45;;;;;;;;;12.50;11.50;;;;;26.75;42.87;101240.78;5019936;28;45612;-81
2022/09/01 09:56:24;;;;;;;;;13.00;11.50;;;;;26.84;42.36;101248.31;5018428;28;45273;-81
2022/09/01 09:58:52;;;;;;;;;12.00;12.00;;;;;26.91;42.21;101245.22;5000309;28;45462;-82
2022/09/01 10:01:24;;;;;;;;;13.50;13.50;;;;;26.98;42.47;101252.84;4998440;28;47321;-81
2022/09/01 10:03:58;;;;;;;;;12.75;12.25;;;;;26.96;42.24;101253.91;4999947;28;45334;-81
2022/09/01 10:06:32;;;;;;;;;13.50;11.25;;;;;27.01;42.03;101252.63;4999930;28;45480;-81
2022/09/01 10:09:04;;;;;;;;;13.75;12.75;;;;;27.00;41.60;101248.19;4998525;28;45890;-81
2022/09/01 10:11:37;;;;;;;;;15.00;15.00;;;;;27.03;42.06;101255.25;4999613;28;45858;-81
2022/09/01 10:14:16;;;;;;;;;16.50;15.75;;;;;27.08;42.10;101244.09;4997919;28;45529;-81
2022/09/01 10:16:43;;;;;;;;;14.75;14.25;;;;;27.15;41.49;101240.06;4998584;28;45285;-81
2022/09/01 10:19:14;;;;;;;;;12.00;12.00;;;;;27.25;41.54;101247.50;4998543;28;45399;-81
2022/09/01 10:21:42;;;;;;;;;14.00;13.00;;;;;27.36;41.33;101240.50;4999275;28;47337;-78
2022/09/01 10:24:30;;;;;;;;;12.00;11.00;;;;;27.46;41.24;101242.50;4998793;28;45297;-81
2022/09/01 10:27:01;;;;;;;;;12.75;12.50;;;;;27.62;41.05;101238.78;5000172;28;45459;-82
2022/09/01 10:29:33;;;;;;;;;13.00;13.00;;;;;27.75;40.92;101244.19;4998797;28;45397;-81
2022/09/01 10:32:00;;;;;;;;;12.75;12.00;;;;;27.85;40.43;101240.81;4999740;28;45497;-80
2022/09/01 10:34:32;;;;;;;;;11.50;11.50;;;;;27.96;40.07;101234.66;5000079;28;45330;-82
2022/09/01 10:37:01;;;;;;;;;12.00;12.00;;;;;28.07;40.07;101236.63;4999761;28;45355;-80
2022/09/01 10:39:26;;;;;;;;;12.50;11.50;;;;;28.18;40.18;101239.44;4998263;28;45491;-81
2022/09/01 10:41:57;;;;;;;;;12.75;10.50;;;;;28.33;39.55;101232.97;4999417;28;45302;-81
2022/09/01 10:44:54;;;;;;;;;20.50;18.00;;;;;28.49;38.95;101232.75;4998515;28;45314;-81
2022/09/01 10:47:36;;;;;;;;;12.75;12.75;;;;;28.67;38.81;101227.84;5007380;28;46082;-82
2022/09/01 10:50:25;;;;;;;;;13.00;12.25;;;;;28.89;38.90;101221.72;5018412;28;45371;-81
2022/09/01 10:53:00;;;;;;;;;13.50;10.75;;;;;29.03;38.37;101232.44;5019194;28;46407;-82
2022/09/01 10:55:33;;;;;;;;;14.25;14.25;;;;;29.18;38.13;101229.59;5018404;28;45244;-82
2022/09/01 10:58:16;;;;;;;;;10.25;10.00;;;;;29.37;38.22;101229.09;5021466;28;45482;-81
2022/09/01 11:00:41;;;;;;;;;11.75;11.50;;;;;29.43;37.42;101226.78;5018088;28;45529;-81
2022/09/01 11:03:10;;;;;;;;;13.75;12.75;;;;;29.50;36.85;101224.47;5017547;28;46468;-82
2022/09/01 11:06:08;;;;;;;;;8.00;8.00;;;;;29.59;37.05;101220.19;5019250;28;45508;-82
2022/09/01 11:08:33;;;;;;;;;15.00;13.00;;;;;29.69;37.01;101226.66;5017681;28;45373;-82
2022/09/01 11:11:13;;;;;;;;;11.75;11.75;;;;;29.78;36.70;101217.84;5017344;28;45648;-82
2022/09/01 11:13:44;;;;;;;;;9.67;9.00;;;;;29.84;36.29;101213.78;5006959;28;45503;-82
2022/09/01 11:16:26;;;;;;;;;9.25;9.25;;;;;29.90;36.36;101207.88;4997818;28;45295;-82
2022/09/01 11:18:51;;;;;;;;;12.00;10.75;;;;;30.02;36.05;101201.47;4997637;28;45325;-82
2022/09/01 11:21:26;;;;;;;;;9.00;9.00;;;;;30.10;35.77;101209.03;4999702;28;45169;-82
2022/09/01 11:24:30;;;;;;;;;14.00;13.00;;;;;30.19;35.66;101204.72;4997612;28;47236;-80
2022/09/01 11:26:56;;;;;;;;;13.25;11.50;;;;;30.35;35.71;101205.25;4997081;28;45439;-82
2022/09/01 11:29:51;;;;;;;;;11.25;11.25;;;;;30.50;35.39;101198.59;4997918;28;45448;-83